sensor_id;sensor_type;location;lat;lon;timestamp;P1;durP1;ratioP1;P2;durP2;ratioP2
23590;SDS011;11973;52.098;7.582;2023-12-07T00:01:53;56.90;;;33.75;;
23590;SDS011;11973;52.098;7.582;2023-12-07T00:04:18;59.10;;;34.92;;
23590;SDS011;11973;52.098;7.582;2023-12-07T00:06:44;60.78;;;35.22;;
23590;SDS011;11973;52.098;7.582;2023-12-07T00:09:10;62.13;;;35.75;;
23590;SDS011;11973;52.098;7.582;2023-12-07T00:11:35;75.63;;;36.60;;
23590;SDS011;11973;52.098;7.582;2023-12-07T00:14:01;60.65;;;34.75;;
23590;SDS011;11973;52.098;7.582;2023-12-07T00:16:27;67.45;;;35.70;;
23590;SDS011;11973;52.098;7.582;2023-12-07T00:18:53;65.22;;;35.85;;
23590;SDS011;11973;52.098;7.582;2023-12-07T00:21:18;67.30;;;35.72;;
23590;SDS011;11973;52.098;7.582;2023-12-07T00:23:44;63.30;;;35.63;;
23590;SDS011;11973;52.098;7.582;2023-12-07T00:26:10;65.13;;;34.63;;
23590;SDS011;11973;52.098;7.582;2023-12-07T00:28:36;62.78;;;35.03;;
23590;SDS011;11973;52.098;7.582;2023-12-07T05:18:10;175.27;;;49.38;;
23590;SDS011;11973;52.098;7.582;2023-12-07T05:20:36;175.75;;;51.38;;
23590;SDS011;11973;52.098;7.582;2023-12-07T05:23:04;225.32;;;54.17;;
23590;SDS011;11973;52.098;7.582;2023-12-07T05:25:31;210.23;;;52.20;;
23590;SDS011;11973;52.098;7.582;2023-12-07T05:27:57;233.35;;;53.72;;
23590;SDS011;11973;52.098;7.582;2023-12-07T05:30:23;211.43;;;52.30;;
23590;SDS011;11973;52.098;7.582;2023-12-07T05:32:49;288.55;;;56.33;;
23590;SDS011;11973;52.098;7.582;2023-12-07T05:35:16;325.48;;;57.53;;
23590;SDS011;11973;52.098;7.582;2023-12-07T05:37:42;438.08;;;67.78;;
23590;SDS011;11973;52.098;7.582;2023-12-07T05:40:08;326.77;;;58.25;;
23590;SDS011;11973;52.098;7.582;2023-12-07T05:42:34;246.52;;;54.60;;
23590;SDS011;11973;52.098;7.582;2023-12-07T05:45:00;179.93;;;51.80;;
23590;SDS011;11973;52.098;7.582;2023-12-07T05:47:26;214.07;;;52.22;;
23590;SDS011;11973;52.098;7.582;2023-12-07T05:49:52;326.15;;;57.75;;
23590;SDS011;11973;52.098;7.582;2023-12-07T05:52:17;386.85;;;60.20;;
23590;SDS011;11973;52.098;7.582;2023-12-07T05:54:43;368.98;;;57.65;;
23590;SDS011;11973;52.098;7.582;2023-12-07T05:57:12;188.38;;;48.97;;
23590;SDS011;11973;52.098;7.582;2023-12-07T05:59:39;175.02;;;49.15;;
23590;SDS011;11973;52.098;7.582;2023-12-07T06:02:04;367.90;;;58.70;;
23590;SDS011;11973;52.098;7.582;2023-12-07T06:04:30;251.75;;;51.60;;
23590;SDS011;11973;52.098;7.582;2023-12-07T06:06:56;123.72;;;45.47;;
23590;SDS011;11973;52.098;7.582;2023-12-07T06:09:22;205.55;;;48.10;;
23590;SDS011;11973;52.098;7.582;2023-12-07T06:11:48;139.32;;;46.05;;
23590;SDS011;11973;52.098;7.582;2023-12-07T06:14:13;185.40;;;45.33;;
23590;SDS011;11973;52.098;7.582;2023-12-07T06:16:39;276.35;;;51.22;;
23590;SDS011;11973;52.098;7.582;2023-12-07T06:19:05;304.48;;;51.60;;
23590;SDS011;11973;52.098;7.582;2023-12-07T06:21:31;236.15;;;49.00;;
23590;SDS011;11973;52.098;7.582;2023-12-07T06:23:58;215.75;;;46.95;;
23590;SDS011;11973;52.098;7.582;2023-12-07T06:26:24;223.13;;;50.55;;
23590;SDS011;11973;52.098;7.582;2023-12-07T06:28:50;186.30;;;44.83;;
23590;SDS011;11973;52.098;7.582;2023-12-07T06:31:16;227.60;;;49.78;;
23590;SDS011;11973;52.098;7.582;2023-12-07T06:33:46;200.05;;;47.85;;
23590;SDS011;11973;52.098;7.582;2023-12-07T06:36:17;199.50;;;49.45;;
23590;SDS011;11973;52.098;7.582;2023-12-07T06:38:47;203.38;;;47.25;;
23590;SDS011;11973;52.098;7.582;2023-12-07T06:41:14;164.27;;;45.90;;
23590;SDS011;11973;52.098;7.582;2023-12-07T06:43:40;165.90;;;46.85;;
23590;SDS011;11973;52.098;7.582;2023-12-07T06:46:06;234.98;;;50.08;;
23590;SDS011;11973;52.098;7.582;2023-12-07T06:48:32;249.85;;;50.38;;
23590;SDS011;11973;52.098;7.582;2023-12-07T06:50:58;138.95;;;46.42;;
23590;SDS011;11973;52.098;7.582;2023-12-07T06:53:24;161.38;;;47.92;;
23590;SDS011;11973;52.098;7.582;2023-12-07T06:55:50;125.32;;;46.60;;
23590;SDS011;11973;52.098;7.582;2023-12-07T06:58:15;203.60;;;51.38;;
23590;SDS011;11973;52.098;7.582;2023-12-07T07:00:41;187.25;;;50.88;;
23590;SDS011;11973;52.098;7.582;2023-12-07T07:03:07;247.68;;;53.50;;
23590;SDS011;11973;52.098;7.582;2023-12-07T07:05:33;151.32;;;47.50;;
23590;SDS011;11973;52.098;7.582;2023-12-07T07:07:59;179.70;;;50.08;;
23590;SDS011;11973;52.098;7.582;2023-12-07T07:10:25;211.32;;;50.72;;
23590;SDS011;11973;52.098;7.582;2023-12-07T07:12:51;167.93;;;48.70;;
23590;SDS011;11973;52.098;7.582;2023-12-07T07:15:16;209.77;;;49.50;;
23590;SDS011;11973;52.098;7.582;2023-12-07T07:17:42;199.30;;;49.83;;
23590;SDS011;11973;52.098;7.582;2023-12-07T07:20:08;177.25;;;49.95;;
23590;SDS011;11973;52.098;7.582;2023-12-07T07:22:34;274.23;;;54.03;;
23590;SDS011;11973;52.098;7.582;2023-12-07T07:25:00;160.35;;;48.83;;
23590;SDS011;11973;52.098;7.582;2023-12-07T07:27:26;199.43;;;50.03;;
23590;SDS011;11973;52.098;7.582;2023-12-07T07:29:51;191.95;;;48.75;;
23590;SDS011;11973;52.098;7.582;2023-12-07T07:32:17;267.42;;;51.67;;
23590;SDS011;11973;52.098;7.582;2023-12-07T07:34:43;211.05;;;48.75;;
23590;SDS011;11973;52.098;7.582;2023-12-07T07:37:09;170.07;;;46.45;;
23590;SDS011;11973;52.098;7.582;2023-12-07T07:39:34;212.93;;;47.85;;
23590;SDS011;11973;52.098;7.582;2023-12-07T07:42:00;182.85;;;46.03;;
23590;SDS011;11973;52.098;7.582;2023-12-07T07:44:26;230.65;;;47.17;;
23590;SDS011;11973;52.098;7.582;2023-12-07T07:46:52;300.08;;;50.05;;
23590;SDS011;11973;52.098;7.582;2023-12-07T07:49:17;375.55;;;53.00;;
23590;SDS011;11973;52.098;7.582;2023-12-07T07:51:43;379.90;;;53.08;;
23590;SDS011;11973;52.098;7.582;2023-12-07T07:54:09;224.35;;;46.08;;
23590;SDS011;11973;52.098;7.582;2023-12-07T07:56:34;408.38;;;53.03;;
23590;SDS011;11973;52.098;7.582;2023-12-07T07:59:00;297.65;;;50.33;;
23590;SDS011;11973;52.098;7.582;2023-12-07T08:01:26;401.08;;;51.45;;
23590;SDS011;11973;52.098;7.582;2023-12-07T08:03:52;414.33;;;52.45;;
23590;SDS011;11973;52.098;7.582;2023-12-07T08:06:18;370.92;;;50.42;;
23590;SDS011;11973;52.098;7.582;2023-12-07T08:08:43;309.65;;;48.83;;
23590;SDS011;11973;52.098;7.582;2023-12-07T08:11:10;370.67;;;50.72;;
23590;SDS011;11973;52.098;7.582;2023-12-07T08:13:39;257.30;;;45.28;;
23590;SDS011;11973;52.098;7.582;2023-12-07T08:16:07;258.58;;;46.28;;
23590;SDS011;11973;52.098;7.582;2023-12-07T08:18:34;296.48;;;46.83;;
23590;SDS011;11973;52.098;7.582;2023-12-07T08:21:00;569.78;;;56.80;;
23590;SDS011;11973;52.098;7.582;2023-12-07T08:23:25;479.75;;;53.10;;
23590;SDS011;11973;52.098;7.582;2023-12-07T08:25:51;300.88;;;46.88;;
23590;SDS011;11973;52.098;7.582;2023-12-07T08:28:17;291.20;;;45.13;;
23590;SDS011;11973;52.098;7.582;2023-12-07T08:30:43;439.65;;;51.80;;
23590;SDS011;11973;52.098;7.582;2023-12-07T08:33:09;516.83;;;53.88;;
23590;SDS011;11973;52.098;7.582;2023-12-07T08:35:35;559.08;;;56.25;;
23590;SDS011;11973;52.098;7.582;2023-12-07T08:38:00;477.02;;;51.22;;
23590;SDS011;11973;52.098;7.582;2023-12-07T08:40:26;558.65;;;56.83;;
23590;SDS011;11973;52.098;7.582;2023-12-07T08:42:54;501.98;;;57.13;;
23590;SDS011;11973;52.098;7.582;2023-12-07T08:45:20;422.48;;;51.08;;
23590;SDS011;11973;52.098;7.582;2023-12-07T08:47:45;498.65;;;54.97;;
23590;SDS011;11973;52.098;7.582;2023-12-07T08:50:11;368.05;;;50.47;;
23590;SDS011;11973;52.098;7.582;2023-12-07T08:52:37;444.40;;;53.40;;
23590;SDS011;11973;52.098;7.582;2023-12-07T08:55:03;483.23;;;52.85;;
23590;SDS011;11973;52.098;7.582;2023-12-07T08:57:29;399.52;;;50.15;;
23590;SDS011;11973;52.098;7.582;2023-12-07T08:59:55;420.77;;;50.58;;
23590;SDS011;11973;52.098;7.582;2023-12-07T09:02:20;424.40;;;49.90;;
23590;SDS011;11973;52.098;7.582;2023-12-07T09:04:46;503.30;;;53.85;;
23590;SDS011;11973;52.098;7.582;2023-12-07T09:07:14;427.95;;;51.03;;
23590;SDS011;11973;52.098;7.582;2023-12-07T09:09:41;456.40;;;52.92;;
23590;SDS011;11973;52.098;7.582;2023-12-07T09:12:12;319.58;;;47.75;;
23590;SDS011;11973;52.098;7.582;2023-12-07T09:14:39;351.35;;;47.72;;
23590;SDS011;11973;52.098;7.582;2023-12-07T09:17:05;348.02;;;46.95;;
23590;SDS011;11973;52.098;7.582;2023-12-07T09:19:31;386.60;;;51.20;;
23590;SDS011;11973;52.098;7.582;2023-12-07T09:21:57;345.73;;;47.45;;
23590;SDS011;11973;52.098;7.582;2023-12-07T09:24:24;391.00;;;50.38;;
23590;SDS011;11973;52.098;7.582;2023-12-07T09:26:50;341.85;;;48.40;;
23590;SDS011;11973;52.098;7.582;2023-12-07T09:29:15;326.67;;;49.10;;
23590;SDS011;11973;52.098;7.582;2023-12-07T09:31:41;380.95;;;50.53;;
23590;SDS011;11973;52.098;7.582;2023-12-07T09:34:07;346.05;;;51.22;;
23590;SDS011;11973;52.098;7.582;2023-12-07T09:36:34;367.23;;;52.30;;
23590;SDS011;11973;52.098;7.582;2023-12-07T09:38:59;372.92;;;52.22;;
23590;SDS011;11973;52.098;7.582;2023-12-07T09:41:26;407.85;;;53.67;;
23590;SDS011;11973;52.098;7.582;2023-12-07T09:43:53;349.15;;;50.40;;
23590;SDS011;11973;52.098;7.582;2023-12-07T09:46:20;412.13;;;53.97;;
23590;SDS011;11973;52.098;7.582;2023-12-07T09:48:46;382.42;;;52.25;;
23590;SDS011;11973;52.098;7.582;2023-12-07T09:51:15;349.25;;;51.90;;
23590;SDS011;11973;52.098;7.582;2023-12-07T09:53:42;356.90;;;51.63;;
23590;SDS011;11973;52.098;7.582;2023-12-07T09:56:10;404.58;;;54.60;;
23590;SDS011;11973;52.098;7.582;2023-12-07T09:58:36;382.42;;;53.35;;
23590;SDS011;11973;52.098;7.582;2023-12-07T10:01:01;383.17;;;55.35;;
23590;SDS011;11973;52.098;7.582;2023-12-07T10:03:27;366.42;;;52.03;;
23590;SDS011;11973;52.098;7.582;2023-12-07T10:08:28;392.30;;;53.22;;
23590;SDS011;11973;52.098;7.582;2023-12-07T10:11:05;338.63;;;52.40;;
23590;SDS011;11973;52.098;7.582;2023-12-07T10:13:32;373.80;;;55.70;;
23590;SDS011;11973;52.098;7.582;2023-12-07T10:16:19;349.52;;;53.88;;
23590;SDS011;11973;52.098;7.582;2023-12-07T10:18:44;371.17;;;55.33;;
23590;SDS011;11973;52.098;7.582;2023-12-07T10:21:10;325.50;;;53.72;;
23590;SDS011;11973;52.098;7.582;2023-12-07T10:23:37;339.42;;;53.75;;
23590;SDS011;11973;52.098;7.582;2023-12-07T10:26:04;346.85;;;55.47;;
23590;SDS011;11973;52.098;7.582;2023-12-07T10:28:31;349.48;;;55.40;;
23590;SDS011;11973;52.098;7.582;2023-12-07T10:30:58;321.92;;;53.67;;
23590;SDS011;11973;52.098;7.582;2023-12-07T10:33:25;302.27;;;54.13;;
23590;SDS011;11973;52.098;7.582;2023-12-07T10:35:51;296.38;;;54.92;;
23590;SDS011;11973;52.098;7.582;2023-12-07T10:38:17;290.60;;;55.50;;
23590;SDS011;11973;52.098;7.582;2023-12-07T10:40:44;276.42;;;54.72;;
23590;SDS011;11973;52.098;7.582;2023-12-07T10:43:16;269.00;;;55.80;;
23590;SDS011;11973;52.098;7.582;2023-12-07T10:45:44;285.88;;;56.25;;
23590;SDS011;11973;52.098;7.582;2023-12-07T10:48:12;264.48;;;56.85;;
23590;SDS011;11973;52.098;7.582;2023-12-07T10:50:42;267.33;;;56.95;;
23590;SDS011;11973;52.098;7.582;2023-12-07T10:53:14;284.67;;;58.05;;
23590;SDS011;11973;52.098;7.582;2023-12-07T10:56:00;294.75;;;58.58;;
23590;SDS011;11973;52.098;7.582;2023-12-07T10:58:26;283.45;;;58.10;;
23590;SDS011;11973;52.098;7.582;2023-12-07T11:00:53;299.65;;;59.72;;
23590;SDS011;11973;52.098;7.582;2023-12-07T11:03:19;300.77;;;57.47;;
23590;SDS011;11973;52.098;7.582;2023-12-07T11:05:49;277.05;;;57.72;;
23590;SDS011;11973;52.098;7.582;2023-12-07T11:11:21;258.98;;;56.50;;
23590;SDS011;11973;52.098;7.582;2023-12-07T11:13:57;263.30;;;57.13;;
23590;SDS011;11973;52.098;7.582;2023-12-07T11:18:58;276.65;;;57.03;;
23590;SDS011;11973;52.098;7.582;2023-12-07T11:21:25;287.00;;;57.67;;
23590;SDS011;11973;52.098;7.582;2023-12-07T11:23:52;270.30;;;53.30;;
23590;SDS011;11973;52.098;7.582;2023-12-07T11:26:19;282.40;;;54.60;;
23590;SDS011;11973;52.098;7.582;2023-12-07T11:28:47;282.63;;;55.58;;
23590;SDS011;11973;52.098;7.582;2023-12-07T11:31:14;287.67;;;53.78;;
23590;SDS011;11973;52.098;7.582;2023-12-07T11:33:41;268.40;;;53.40;;
23590;SDS011;11973;52.098;7.582;2023-12-07T11:36:11;252.05;;;52.42;;
23590;SDS011;11973;52.098;7.582;2023-12-07T11:38:38;249.77;;;51.78;;
23590;SDS011;11973;52.098;7.582;2023-12-07T11:41:24;250.98;;;52.08;;
23590;SDS011;11973;52.098;7.582;2023-12-07T11:43:57;237.48;;;50.90;;
23590;SDS011;11973;52.098;7.582;2023-12-07T11:46:23;241.32;;;52.90;;
23590;SDS011;11973;52.098;7.582;2023-12-07T11:48:49;225.63;;;50.58;;
23590;SDS011;11973;52.098;7.582;2023-12-07T11:51:15;228.07;;;51.63;;
23590;SDS011;11973;52.098;7.582;2023-12-07T11:53:41;224.32;;;51.63;;
23590;SDS011;11973;52.098;7.582;2023-12-07T11:56:08;207.00;;;48.83;;
23590;SDS011;11973;52.098;7.582;2023-12-07T11:58:35;206.98;;;49.60;;
23590;SDS011;11973;52.098;7.582;2023-12-07T12:01:02;195.88;;;49.00;;
23590;SDS011;11973;52.098;7.582;2023-12-07T12:03:30;191.15;;;48.20;;
23590;SDS011;11973;52.098;7.582;2023-12-07T12:05:59;193.55;;;47.92;;
23590;SDS011;11973;52.098;7.582;2023-12-07T12:08:27;183.80;;;47.15;;
23590;SDS011;11973;52.098;7.582;2023-12-07T12:10:54;170.73;;;46.35;;
23590;SDS011;11973;52.098;7.582;2023-12-07T12:13:28;166.40;;;45.63;;
23590;SDS011;11973;52.098;7.582;2023-12-07T12:15:58;163.75;;;45.65;;
23590;SDS011;11973;52.098;7.582;2023-12-07T12:18:25;169.07;;;45.40;;
23590;SDS011;11973;52.098;7.582;2023-12-07T12:20:52;156.73;;;44.95;;
23590;SDS011;11973;52.098;7.582;2023-12-07T12:23:18;154.70;;;43.65;;
23590;SDS011;11973;52.098;7.582;2023-12-07T12:25:45;152.45;;;43.88;;
23590;SDS011;11973;52.098;7.582;2023-12-07T12:28:11;148.32;;;43.35;;
23590;SDS011;11973;52.098;7.582;2023-12-07T12:30:41;153.05;;;46.65;;
23590;SDS011;11973;52.098;7.582;2023-12-07T12:33:07;143.55;;;44.53;;
23590;SDS011;11973;52.098;7.582;2023-12-07T12:35:33;141.18;;;43.47;;
23590;SDS011;11973;52.098;7.582;2023-12-07T12:37:58;128.43;;;41.70;;
23590;SDS011;11973;52.098;7.582;2023-12-07T12:40:26;114.80;;;41.00;;
23590;SDS011;11973;52.098;7.582;2023-12-07T12:42:54;111.50;;;39.75;;
23590;SDS011;11973;52.098;7.582;2023-12-07T12:45:20;112.18;;;39.45;;
23590;SDS011;11973;52.098;7.582;2023-12-07T12:47:47;114.47;;;41.95;;
23590;SDS011;11973;52.098;7.582;2023-12-07T12:52:59;92.75;;;38.28;;
23590;SDS011;11973;52.098;7.582;2023-12-07T12:55:26;93.00;;;38.85;;
23590;SDS011;11973;52.098;7.582;2023-12-07T12:57:54;96.60;;;40.50;;
23590;SDS011;11973;52.098;7.582;2023-12-07T13:00:21;96.25;;;41.67;;
23590;SDS011;11973;52.098;7.582;2023-12-07T13:02:47;85.70;;;38.58;;
23590;SDS011;11973;52.098;7.582;2023-12-07T13:05:12;90.68;;;40.40;;
23590;SDS011;11973;52.098;7.582;2023-12-07T13:07:38;88.82;;;37.55;;
23590;SDS011;11973;52.098;7.582;2023-12-07T13:10:04;90.18;;;38.03;;
23590;SDS011;11973;52.098;7.582;2023-12-07T13:12:33;84.55;;;38.15;;
23590;SDS011;11973;52.098;7.582;2023-12-07T13:15:00;77.32;;;37.67;;
23590;SDS011;11973;52.098;7.582;2023-12-07T13:17:26;74.90;;;37.47;;
23590;SDS011;11973;52.098;7.582;2023-12-07T13:19:52;82.68;;;38.75;;
23590;SDS011;11973;52.098;7.582;2023-12-07T13:22:17;71.13;;;36.95;;
23590;SDS011;11973;52.098;7.582;2023-12-07T13:24:45;76.90;;;37.42;;
23590;SDS011;11973;52.098;7.582;2023-12-07T13:27:13;68.88;;;36.50;;
23590;SDS011;11973;52.098;7.582;2023-12-07T13:29:40;62.53;;;33.15;;
23590;SDS011;11973;52.098;7.582;2023-12-07T13:32:06;62.85;;;32.70;;
23590;SDS011;11973;52.098;7.582;2023-12-07T13:34:32;73.05;;;36.63;;
23590;SDS011;11973;52.098;7.582;2023-12-07T13:36:58;69.15;;;34.67;;
23590;SDS011;11973;52.098;7.582;2023-12-07T13:39:24;62.53;;;32.45;;
23590;SDS011;11973;52.098;7.582;2023-12-07T13:41:51;66.70;;;34.17;;
23590;SDS011;11973;52.098;7.582;2023-12-07T13:44:17;57.33;;;31.92;;
23590;SDS011;11973;52.098;7.582;2023-12-07T13:46:45;65.63;;;32.90;;
23590;SDS011;11973;52.098;7.582;2023-12-07T13:49:11;64.50;;;33.50;;
23590;SDS011;11973;52.098;7.582;2023-12-07T13:51:39;67.43;;;33.90;;
23590;SDS011;11973;52.098;7.582;2023-12-07T13:54:06;62.67;;;34.17;;
23590;SDS011;11973;52.098;7.582;2023-12-07T13:56:33;70.53;;;35.47;;
23590;SDS011;11973;52.098;7.582;2023-12-07T13:59:02;68.10;;;35.35;;
23590;SDS011;11973;52.098;7.582;2023-12-07T14:01:28;72.55;;;36.22;;
23590;SDS011;11973;52.098;7.582;2023-12-07T14:03:57;75.10;;;37.08;;
23590;SDS011;11973;52.098;7.582;2023-12-07T14:06:23;79.35;;;38.00;;
23590;SDS011;11973;52.098;7.582;2023-12-07T14:08:49;83.75;;;38.47;;
23590;SDS011;11973;52.098;7.582;2023-12-07T14:11:16;84.05;;;38.38;;
23590;SDS011;11973;52.098;7.582;2023-12-07T14:13:43;90.97;;;39.88;;
23590;SDS011;11973;52.098;7.582;2023-12-07T14:16:11;84.28;;;37.63;;
23590;SDS011;11973;52.098;7.582;2023-12-07T14:18:37;95.22;;;41.85;;
23590;SDS011;11973;52.098;7.582;2023-12-07T14:21:03;92.07;;;41.22;;
23590;SDS011;11973;52.098;7.582;2023-12-07T14:23:29;81.68;;;39.35;;
23590;SDS011;11973;52.098;7.582;2023-12-07T14:25:55;100.25;;;41.08;;
23590;SDS011;11973;52.098;7.582;2023-12-07T14:28:23;93.85;;;40.72;;
23590;SDS011;11973;52.098;7.582;2023-12-07T14:30:50;99.57;;;40.75;;
23590;SDS011;11973;52.098;7.582;2023-12-07T14:33:21;96.70;;;40.15;;
23590;SDS011;11973;52.098;7.582;2023-12-07T14:35:50;98.00;;;40.28;;
23590;SDS011;11973;52.098;7.582;2023-12-07T14:38:15;94.05;;;40.42;;
23590;SDS011;11973;52.098;7.582;2023-12-07T14:40:41;96.47;;;40.05;;
23590;SDS011;11973;52.098;7.582;2023-12-07T14:43:07;93.78;;;39.92;;
23590;SDS011;11973;52.098;7.582;2023-12-07T14:45:33;85.50;;;38.78;;
23590;SDS011;11973;52.098;7.582;2023-12-07T14:47:58;97.18;;;40.08;;
23590;SDS011;11973;52.098;7.582;2023-12-07T14:50:24;94.82;;;39.08;;
23590;SDS011;11973;52.098;7.582;2023-12-07T14:52:50;92.63;;;39.40;;
23590;SDS011;11973;52.098;7.582;2023-12-07T14:55:16;104.05;;;40.47;;
23590;SDS011;11973;52.098;7.582;2023-12-07T14:57:45;100.97;;;40.33;;
23590;SDS011;11973;52.098;7.582;2023-12-07T15:00:13;98.32;;;39.20;;
23590;SDS011;11973;52.098;7.582;2023-12-07T15:02:39;104.35;;;42.40;;
23590;SDS011;11973;52.098;7.582;2023-12-07T15:05:05;101.32;;;42.25;;
23590;SDS011;11973;52.098;7.582;2023-12-07T15:07:33;106.50;;;41.55;;
23590;SDS011;11973;52.098;7.582;2023-12-07T15:09:58;97.07;;;39.63;;
23590;SDS011;11973;52.098;7.582;2023-12-07T15:12:24;112.78;;;41.03;;
23590;SDS011;11973;52.098;7.582;2023-12-07T15:14:50;99.88;;;39.25;;
23590;SDS011;11973;52.098;7.582;2023-12-07T15:17:16;104.45;;;39.85;;
23590;SDS011;11973;52.098;7.582;2023-12-07T15:19:42;106.43;;;40.85;;
23590;SDS011;11973;52.098;7.582;2023-12-07T15:22:08;118.28;;;43.03;;
23590;SDS011;11973;52.098;7.582;2023-12-07T15:24:35;118.57;;;43.10;;
23590;SDS011;11973;52.098;7.582;2023-12-07T15:27:01;122.47;;;43.15;;
23590;SDS011;11973;52.098;7.582;2023-12-07T15:29:26;118.53;;;41.85;;
23590;SDS011;11973;52.098;7.582;2023-12-07T15:31:52;112.05;;;41.28;;
23590;SDS011;11973;52.098;7.582;2023-12-07T15:34:18;116.00;;;40.83;;
23590;SDS011;11973;52.098;7.582;2023-12-07T15:36:44;117.10;;;42.60;;
23590;SDS011;11973;52.098;7.582;2023-12-07T15:39:10;121.25;;;44.50;;
23590;SDS011;11973;52.098;7.582;2023-12-07T15:41:37;124.60;;;44.63;;
23590;SDS011;11973;52.098;7.582;2023-12-07T15:44:03;128.35;;;44.42;;
23590;SDS011;11973;52.098;7.582;2023-12-07T15:46:29;132.60;;;44.58;;
23590;SDS011;11973;52.098;7.582;2023-12-07T15:48:54;117.28;;;42.55;;
23590;SDS011;11973;52.098;7.582;2023-12-07T15:51:20;125.38;;;44.85;;
23590;SDS011;11973;52.098;7.582;2023-12-07T15:53:46;117.28;;;41.78;;
23590;SDS011;11973;52.098;7.582;2023-12-07T15:56:12;127.32;;;42.55;;
23590;SDS011;11973;52.098;7.582;2023-12-07T15:58:38;107.68;;;41.53;;
23590;SDS011;11973;52.098;7.582;2023-12-07T16:01:04;110.13;;;40.90;;
23590;SDS011;11973;52.098;7.582;2023-12-07T16:03:30;124.75;;;41.88;;
23590;SDS011;11973;52.098;7.582;2023-12-07T16:05:55;121.07;;;42.70;;
23590;SDS011;11973;52.098;7.582;2023-12-07T16:08:22;115.90;;;41.97;;
23590;SDS011;11973;52.098;7.582;2023-12-07T16:10:49;133.85;;;44.45;;
23590;SDS011;11973;52.098;7.582;2023-12-07T16:13:14;118.90;;;43.20;;
23590;SDS011;11973;52.098;7.582;2023-12-07T16:15:40;115.18;;;41.45;;
23590;SDS011;11973;52.098;7.582;2023-12-07T16:18:06;108.45;;;42.20;;
23590;SDS011;11973;52.098;7.582;2023-12-07T16:20:33;108.35;;;40.65;;
23590;SDS011;11973;52.098;7.582;2023-12-07T16:22:59;107.72;;;41.38;;
23590;SDS011;11973;52.098;7.582;2023-12-07T16:25:25;114.20;;;42.72;;
23590;SDS011;11973;52.098;7.582;2023-12-07T16:27:50;104.97;;;40.00;;
23590;SDS011;11973;52.098;7.582;2023-12-07T16:30:16;115.15;;;41.72;;
23590;SDS011;11973;52.098;7.582;2023-12-07T16:32:43;119.50;;;43.65;;
23590;SDS011;11973;52.098;7.582;2023-12-07T16:35:11;109.88;;;42.70;;
23590;SDS011;11973;52.098;7.582;2023-12-07T16:37:37;103.30;;;43.72;;
23590;SDS011;11973;52.098;7.582;2023-12-07T16:40:03;128.65;;;46.85;;
23590;SDS011;11973;52.098;7.582;2023-12-07T16:42:29;113.68;;;44.05;;
23590;SDS011;11973;52.098;7.582;2023-12-07T16:44:55;120.88;;;44.13;;
23590;SDS011;11973;52.098;7.582;2023-12-07T16:47:21;116.60;;;43.95;;
23590;SDS011;11973;52.098;7.582;2023-12-07T16:49:47;115.38;;;43.58;;
23590;SDS011;11973;52.098;7.582;2023-12-07T16:52:13;123.00;;;45.55;;
23590;SDS011;11973;52.098;7.582;2023-12-07T16:54:39;123.90;;;44.42;;
23590;SDS011;11973;52.098;7.582;2023-12-07T16:57:05;123.15;;;46.00;;
23590;SDS011;11973;52.098;7.582;2023-12-07T16:59:30;119.78;;;45.25;;
23590;SDS011;11973;52.098;7.582;2023-12-07T17:01:56;118.28;;;45.03;;
23590;SDS011;11973;52.098;7.582;2023-12-07T17:04:22;117.93;;;45.65;;
23590;SDS011;11973;52.098;7.582;2023-12-07T17:06:47;117.07;;;44.63;;
23590;SDS011;11973;52.098;7.582;2023-12-07T17:09:13;108.93;;;44.10;;
23590;SDS011;11973;52.098;7.582;2023-12-07T17:11:40;112.28;;;43.40;;
23590;SDS011;11973;52.098;7.582;2023-12-07T17:14:06;108.20;;;42.13;;
23590;SDS011;11973;52.098;7.582;2023-12-07T17:16:32;115.97;;;42.80;;
23590;SDS011;11973;52.098;7.582;2023-12-07T17:18:58;106.78;;;43.42;;
23590;SDS011;11973;52.098;7.582;2023-12-07T17:21:23;103.55;;;42.70;;
23590;SDS011;11973;52.098;7.582;2023-12-07T17:23:51;114.30;;;43.72;;
23590;SDS011;11973;52.098;7.582;2023-12-07T17:26:17;104.25;;;41.53;;
23590;SDS011;11973;52.098;7.582;2023-12-07T17:28:43;98.80;;;40.38;;
23590;SDS011;11973;52.098;7.582;2023-12-07T17:31:08;105.60;;;42.47;;
23590;SDS011;11973;52.098;7.582;2023-12-07T17:33:34;103.15;;;41.40;;
23590;SDS011;11973;52.098;7.582;2023-12-07T17:36:00;106.38;;;43.72;;
23590;SDS011;11973;52.098;7.582;2023-12-07T17:38:26;97.82;;;42.75;;
23590;SDS011;11973;52.098;7.582;2023-12-07T17:40:51;95.38;;;41.65;;
23590;SDS011;11973;52.098;7.582;2023-12-07T17:43:17;87.88;;;40.35;;
23590;SDS011;11973;52.098;7.582;2023-12-07T17:45:43;88.93;;;39.90;;
23590;SDS011;11973;52.098;7.582;2023-12-07T17:48:10;100.03;;;41.28;;
23590;SDS011;11973;52.098;7.582;2023-12-07T17:50:39;90.60;;;40.38;;
23590;SDS011;11973;52.098;7.582;2023-12-07T17:53:05;91.22;;;41.05;;
23590;SDS011;11973;52.098;7.582;2023-12-07T17:55:31;91.38;;;41.15;;
23590;SDS011;11973;52.098;7.582;2023-12-07T17:57:56;88.78;;;39.95;;
23590;SDS011;11973;52.098;7.582;2023-12-07T18:00:23;94.50;;;41.00;;
23590;SDS011;11973;52.098;7.582;2023-12-07T18:02:49;87.10;;;38.72;;
23590;SDS011;11973;52.098;7.582;2023-12-07T18:05:15;81.55;;;38.13;;
23590;SDS011;11973;52.098;7.582;2023-12-07T18:07:40;82.72;;;39.47;;
23590;SDS011;11973;52.098;7.582;2023-12-07T18:10:08;88.70;;;39.63;;
23590;SDS011;11973;52.098;7.582;2023-12-07T18:12:34;86.90;;;39.55;;
23590;SDS011;11973;52.098;7.582;2023-12-07T18:15:00;88.95;;;39.20;;
23590;SDS011;11973;52.098;7.582;2023-12-07T18:17:26;86.28;;;40.83;;
23590;SDS011;11973;52.098;7.582;2023-12-07T18:19:51;81.90;;;39.53;;
23590;SDS011;11973;52.098;7.582;2023-12-07T18:22:17;84.03;;;38.25;;
23590;SDS011;11973;52.098;7.582;2023-12-07T18:24:43;74.75;;;37.58;;
23590;SDS011;11973;52.098;7.582;2023-12-07T18:27:09;74.65;;;36.88;;
23590;SDS011;11973;52.098;7.582;2023-12-07T18:29:35;84.10;;;39.13;;
23590;SDS011;11973;52.098;7.582;2023-12-07T18:32:03;78.00;;;37.80;;
23590;SDS011;11973;52.098;7.582;2023-12-07T18:34:30;74.93;;;37.63;;
23590;SDS011;11973;52.098;7.582;2023-12-07T18:36:56;67.05;;;35.30;;
23590;SDS011;11973;52.098;7.582;2023-12-07T18:39:22;73.88;;;35.88;;
23590;SDS011;11973;52.098;7.582;2023-12-07T18:41:47;70.20;;;35.92;;
23590;SDS011;11973;52.098;7.582;2023-12-07T18:44:13;72.53;;;35.47;;
23590;SDS011;11973;52.098;7.582;2023-12-07T18:46:39;71.03;;;36.13;;
23590;SDS011;11973;52.098;7.582;2023-12-07T18:49:06;70.22;;;35.72;;
23590;SDS011;11973;52.098;7.582;2023-12-07T18:51:31;74.13;;;35.55;;
23590;SDS011;11973;52.098;7.582;2023-12-07T18:53:57;71.53;;;36.00;;
23590;SDS011;11973;52.098;7.582;2023-12-07T18:56:23;65.78;;;34.83;;
23590;SDS011;11973;52.098;7.582;2023-12-07T18:58:48;65.13;;;33.22;;
23590;SDS011;11973;52.098;7.582;2023-12-07T19:01:14;58.22;;;32.85;;
23590;SDS011;11973;52.098;7.582;2023-12-07T19:03:40;59.65;;;32.75;;
23590;SDS011;11973;52.098;7.582;2023-12-07T19:06:08;58.22;;;31.70;;
23590;SDS011;11973;52.098;7.582;2023-12-07T19:08:34;54.53;;;30.98;;